createdAt,value
2018-03-26T00:01:30.188Z,60.90
2018-03-26T00:06:21.068Z,60.90
2018-03-26T00:11:11.958Z,60.80
2018-03-26T00:16:03.595Z,60.70
2018-03-26T00:20:55.242Z,60.80
2018-03-26T00:25:46.894Z,60.90
2018-03-26T00:30:38.525Z,60.70
2018-03-26T00:35:30.150Z,60.80
2018-03-26T00:40:21.042Z,60.80
2018-03-26T00:45:11.942Z,60.80
2018-03-26T00:50:02.831Z,60.70
2018-03-26T00:54:54.466Z,60.80
2018-03-26T00:59:45.353Z,60.80
2018-03-26T01:04:36.254Z,60.70
2018-03-26T01:09:27.882Z,61.30
2018-03-26T01:14:18.778Z,60.70
2018-03-26T01:19:09.695Z,60.80
2018-03-26T01:24:00.646Z,60.80
2018-03-26T01:28:51.552Z,60.80
2018-03-26T01:33:42.446Z,60.70
2018-03-26T01:38:33.328Z,60.80
2018-03-26T01:43:24.205Z,60.70
2018-03-26T01:48:15.090Z,60.80
2018-03-26T01:53:06.721Z,60.70
2018-03-26T01:57:57.600Z,60.70
2018-03-26T02:02:48.494Z,60.80
2018-03-26T02:07:39.445Z,60.80
2018-03-26T02:12:30.365Z,60.80
2018-03-26T02:17:21.258Z,60.80
2018-03-26T02:22:12.894Z,60.80
2018-03-26T02:27:04.538Z,60.80
2018-03-26T02:31:56.167Z,60.80
2018-03-26T02:36:47.819Z,61.00
2018-03-26T02:41:39.461Z,61.50
2018-03-26T02:46:31.106Z,61.00
2018-03-26T02:51:22.006Z,61.00
2018-03-26T02:56:12.895Z,61.00
2018-03-26T03:01:03.800Z,60.80
2018-03-26T03:05:54.698Z,60.90
2018-03-26T03:10:46.334Z,60.90
2018-03-26T03:15:37.955Z,60.90
2018-03-26T03:20:28.864Z,60.90
2018-03-26T03:25:19.770Z,60.90
2018-03-26T03:30:10.657Z,60.90
2018-03-26T03:35:02.285Z,60.90
2018-03-26T03:39:53.178Z,60.90
2018-03-26T03:44:44.073Z,61.10
2018-03-26T03:49:34.966Z,61.00
2018-03-26T03:54:26.604Z,61.10
2018-03-26T03:59:17.497Z,61.00
2018-03-26T04:04:08.381Z,61.00
2018-03-26T04:08:59.273Z,61.20
2018-03-26T04:13:50.904Z,60.70
2018-03-26T04:18:41.812Z,61.10
2018-03-26T04:23:32.710Z,61.10
2018-03-26T04:28:23.617Z,61.10
2018-03-26T04:33:14.514Z,61.10
2018-03-26T04:38:06.158Z,61.10
2018-03-26T04:42:57.797Z,61.10
2018-03-26T04:47:49.430Z,61.20
2018-03-26T04:52:40.338Z,61.10
2018-03-26T04:57:31.235Z,61.10
2018-03-26T05:02:22.126Z,61.10
2018-03-26T05:07:13.757Z,61.30
2018-03-26T05:12:04.666Z,61.20
2018-03-26T05:16:55.574Z,61.10
2018-03-26T05:21:46.470Z,61.10
2018-03-26T05:26:37.366Z,61.30
2018-03-26T05:31:29.002Z,61.10
2018-03-26T05:36:20.672Z,62.00
2018-03-26T05:41:12.265Z,61.40
2018-03-26T05:46:03.149Z,61.30
2018-03-26T05:50:54.033Z,61.40
2018-03-26T05:55:44.930Z,61.50
2018-03-26T06:00:35.823Z,61.50
2018-03-26T06:05:26.723Z,61.30
2018-03-26T06:10:17.608Z,61.90
2018-03-26T06:15:08.502Z,61.50
2018-03-26T06:20:00.146Z,61.50
2018-03-26T06:24:51.804Z,61.60
2018-03-26T06:29:43.426Z,61.60
2018-03-26T06:34:34.330Z,61.50
2018-03-26T06:39:25.229Z,62.00
2018-03-26T06:44:16.201Z,61.40
2018-03-26T06:49:07.095Z,61.60
2018-03-26T06:53:57.982Z,61.50
2018-03-26T06:58:48.868Z,61.70
2018-03-26T07:03:39.761Z,61.40
2018-03-26T07:08:30.648Z,61.60
2018-03-26T07:13:22.282Z,61.70
2018-03-26T07:18:13.186Z,61.70
2018-03-26T07:23:04.077Z,61.70
2018-03-26T07:27:55.786Z,61.80
2018-03-26T07:32:46.676Z,61.70
2018-03-26T07:37:37.565Z,62.10
2018-03-26T07:42:29.225Z,61.90
2018-03-26T07:47:20.105Z,61.80
2018-03-26T07:52:11.742Z,61.90
2018-03-26T07:57:02.642Z,61.90
2018-03-26T08:01:53.534Z,62.00
2018-03-26T08:06:45.157Z,62.50
2018-03-26T08:11:36.157Z,62.40
2018-03-26T08:16:27.070Z,63.10
2018-03-26T08:21:17.956Z,63.70
2018-03-26T08:26:08.858Z,63.90
2018-03-26T08:30:59.800Z,63.90
2018-03-26T08:35:50.684Z,63.90
2018-03-26T08:40:41.601Z,63.60
2018-03-26T08:45:32.485Z,63.30
2018-03-26T08:50:24.181Z,63.30
2018-03-26T08:55:15.756Z,63.20
2018-03-26T09:00:07.406Z,62.90
2018-03-26T09:04:58.424Z,63.20
2018-03-26T09:09:49.322Z,63.10
2018-03-26T09:14:40.208Z,63.20
2018-03-26T09:19:31.250Z,63.60
2018-03-26T09:24:22.888Z,63.50
2018-03-26T09:29:13.798Z,63.50
2018-03-26T09:34:04.685Z,63.90
2018-03-26T09:38:56.341Z,63.40
2018-03-26T09:43:47.240Z,63.40
2018-03-26T09:48:38.148Z,63.20
2018-03-26T09:53:29.808Z,63.90
2018-03-26T09:58:21.430Z,64.00
2018-03-26T10:03:12.328Z,64.00
2018-03-26T10:08:03.262Z,64.30
2018-03-26T10:12:54.145Z,64.20
2018-03-26T10:17:46.584Z,63.70
2018-03-26T10:22:37.529Z,63.70
2018-03-26T10:27:28.432Z,63.50
2018-03-26T10:32:19.341Z,63.40
2018-03-26T10:37:10.239Z,63.00
2018-03-26T10:42:01.882Z,62.50
2018-03-26T10:46:52.761Z,62.40
2018-03-26T10:51:43.710Z,62.50
2018-03-26T10:56:34.605Z,62.40
2018-03-26T11:01:25.556Z,62.50
2018-03-26T11:06:16.453Z,62.50
2018-03-26T11:11:07.381Z,62.60
2018-03-26T11:15:58.280Z,62.50
2018-03-26T11:20:49.297Z,62.50
2018-03-26T11:25:40.194Z,62.40
2018-03-26T11:30:31.088Z,62.40
2018-03-26T11:35:22.054Z,62.50
2018-03-26T11:40:12.945Z,62.50
2018-03-26T11:45:03.832Z,62.60
2018-03-26T11:49:55.488Z,63.50
2018-03-26T11:54:47.130Z,62.80
2018-03-26T11:59:38.773Z,62.90
2018-03-26T12:04:29.743Z,62.80
2018-03-26T12:09:20.708Z,62.90
2018-03-26T12:14:11.639Z,63.10
2018-03-26T12:19:02.542Z,63.10
2018-03-26T12:24:05.977Z,63.10
2018-03-26T12:29:09.326Z,63.20
2018-03-26T12:34:12.946Z,63.20
2018-03-26T12:39:03.847Z,63.10
2018-03-26T12:43:54.741Z,63.00
2018-03-26T12:48:45.663Z,63.00
2018-03-26T12:53:36.557Z,62.80
2018-03-26T12:58:39.976Z,62.80
2018-03-26T13:03:31.622Z,62.70
2018-03-26T13:08:22.517Z,62.70
2018-03-26T13:13:13.486Z,62.50
2018-03-26T13:18:05.222Z,62.50
2018-03-26T13:22:56.112Z,62.50
2018-03-26T13:27:47.006Z,62.50
2018-03-26T13:32:38.794Z,63.20
2018-03-26T13:37:29.716Z,63.10
2018-03-26T13:42:20.659Z,64.30
2018-03-26T13:47:11.552Z,64.70
2018-03-26T13:52:02.503Z,63.80
2018-03-26T13:56:53.389Z,63.40
2018-03-26T14:01:45.028Z,63.40
2018-03-26T14:06:35.922Z,63.40
2018-03-26T14:11:39.184Z,63.00
2018-03-26T14:16:42.587Z,63.10
2018-03-26T14:21:33.481Z,62.50
2018-03-26T14:26:24.672Z,61.80
2018-03-26T14:31:15.562Z,62.20
2018-03-26T14:36:06.487Z,61.10
2018-03-26T14:40:58.137Z,61.70
2018-03-26T14:45:49.140Z,61.70
2018-03-26T14:50:40.033Z,61.40
2018-03-26T14:55:30.955Z,61.70
2018-03-26T15:00:21.948Z,61.30
2018-03-26T15:05:12.845Z,60.60
2018-03-26T15:10:03.775Z,60.30
2018-03-26T15:14:54.744Z,60.00
2018-03-26T15:19:45.649Z,59.80
2018-03-26T15:24:36.551Z,59.90
2018-03-26T15:29:27.554Z,59.80
2018-03-26T15:34:19.193Z,59.70
2018-03-26T15:39:10.110Z,59.60
2018-03-26T15:44:01.023Z,59.50
2018-03-26T15:48:51.917Z,59.10
2018-03-26T15:53:42.818Z,59.40
2018-03-26T15:58:34.467Z,59.30
2018-03-26T16:03:30.037Z,59.30
2018-03-26T16:08:20.917Z,59.30
2018-03-26T16:13:11.801Z,59.50
2018-03-26T16:18:02.704Z,59.80
2018-03-26T16:22:53.596Z,59.60
2018-03-26T16:27:44.495Z,60.50
2018-03-26T16:32:35.394Z,60.70
2018-03-26T16:37:26.301Z,60.60
2018-03-26T16:42:26.800Z,60.50
2018-03-26T16:47:17.693Z,60.60
2018-03-26T16:52:08.599Z,60.60
2018-03-26T16:56:59.498Z,60.50
2018-03-26T17:01:50.402Z,60.50
2018-03-26T17:06:41.313Z,60.50
2018-03-26T17:11:32.949Z,60.30
2018-03-26T17:16:23.836Z,60.30
2018-03-26T17:21:14.759Z,60.50
2018-03-26T17:26:06.397Z,60.40
2018-03-26T17:30:57.306Z,61.00
2018-03-26T17:35:48.188Z,60.40
2018-03-26T17:40:39.085Z,60.40
2018-03-26T17:45:30.027Z,60.50
2018-03-26T17:50:21.664Z,60.60
2018-03-26T17:55:13.298Z,61.30
2018-03-26T18:00:04.224Z,60.70
2018-03-26T18:04:55.135Z,60.80
2018-03-26T18:09:46.032Z,60.80
2018-03-26T18:14:36.924Z,60.90
2018-03-26T18:19:27.836Z,61.00
2018-03-26T18:24:18.717Z,60.90
2018-03-26T18:29:09.693Z,61.00
2018-03-26T18:34:07.616Z,61.00
2018-03-26T18:38:58.510Z,61.10
2018-03-26T18:43:49.492Z,61.00
2018-03-26T18:48:40.422Z,61.10
2018-03-26T18:53:31.321Z,61.10
2018-03-26T18:58:22.214Z,61.20
2018-03-26T19:03:13.121Z,61.30
2018-03-26T19:08:04.777Z,61.20
2018-03-26T19:12:55.670Z,61.20
2018-03-26T19:17:46.577Z,61.40
2018-03-26T19:22:44.617Z,61.60
2018-03-26T19:27:40.414Z,61.40
2018-03-26T19:32:40.737Z,61.50
2018-03-26T19:37:40.431Z,61.50
2018-03-26T19:42:31.376Z,61.40
2018-03-26T19:47:23.029Z,61.50
2018-03-26T19:52:13.925Z,61.50
2018-03-26T19:57:04.838Z,61.50
2018-03-26T20:01:55.784Z,61.60
2018-03-26T20:06:46.682Z,61.70
2018-03-26T20:11:38.325Z,61.90
2018-03-26T20:16:29.993Z,62.00
2018-03-26T20:26:38.697Z,62.00
2018-03-26T20:31:29.577Z,62.00
2018-03-26T20:36:20.534Z,62.10
2018-03-26T20:41:11.485Z,62.10
2018-03-26T20:46:02.398Z,62.10
2018-03-26T20:50:54.038Z,62.30
2018-03-26T20:55:44.928Z,62.10
2018-03-26T21:00:35.844Z,62.10
2018-03-26T21:05:27.480Z,62.10
2018-03-26T21:10:19.126Z,62.20
2018-03-26T21:15:10.778Z,62.30
2018-03-26T21:20:01.675Z,62.20
2018-03-26T21:24:52.580Z,62.30
2018-03-26T21:29:43.526Z,62.30
2018-03-26T21:34:34.474Z,62.30
2018-03-26T21:39:25.385Z,62.30
2018-03-26T21:44:16.267Z,62.30
2018-03-26T21:49:07.162Z,62.40
2018-03-26T21:53:58.792Z,62.40
2018-03-26T21:58:49.677Z,62.30
2018-03-26T22:03:40.590Z,62.20
2018-03-26T22:08:31.530Z,62.20
2018-03-26T22:13:22.438Z,62.30
2018-03-26T22:18:14.199Z,62.30
2018-03-26T22:23:05.836Z,62.10
2018-03-26T22:27:56.756Z,62.10
2018-03-26T22:32:47.869Z,62.20
2018-03-26T22:37:38.765Z,62.30
2018-03-26T22:42:30.501Z,62.20
2018-03-26T22:47:22.168Z,62.10
2018-03-26T22:52:13.065Z,62.00
2018-03-26T22:57:03.957Z,62.20
2018-03-26T23:01:58.366Z,62.20
2018-03-26T23:06:49.276Z,62.10
2018-03-26T23:11:40.914Z,62.20
2018-03-26T23:16:31.801Z,62.10
2018-03-26T23:21:22.705Z,62.30
2018-03-26T23:26:13.595Z,62.00
2018-03-26T23:31:04.495Z,62.10
2018-03-26T23:35:55.432Z,62.10
2018-03-26T23:40:46.327Z,62.10
2018-03-26T23:45:37.216Z,62.00
2018-03-26T23:50:28.657Z,62.10
2018-03-26T23:55:19.571Z,62.00
